createdAt,value
2022-10-15T00:00:55.926Z,3.72
2022-10-15T00:03:24.807Z,2.33
2022-10-15T00:05:52.354Z,3.25
2022-10-15T00:08:19.962Z,3.65
2022-10-15T00:10:47.493Z,4.65
2022-10-15T00:13:15.051Z,3.70
2022-10-15T00:15:42.922Z,4.30
2022-10-15T00:18:10.737Z,2.70
2022-10-15T00:20:42.454Z,2.80
2022-10-15T00:23:10.019Z,2.10
2022-10-15T00:25:38.038Z,3.42
2022-10-15T00:28:05.808Z,3.73
2022-10-15T00:30:34.046Z,4.88
2022-10-15T00:33:01.711Z,3.03
2022-10-15T00:35:29.263Z,2.78
2022-10-15T00:38:01.278Z,5.60
2022-10-15T00:40:28.837Z,2.60
2022-10-15T00:42:56.415Z,2.60
2022-10-15T00:45:24.285Z,3.17
2022-10-15T00:47:53.962Z,2.72
2022-10-15T00:50:24.579Z,2.85
2022-10-15T00:53:01.018Z,3.75
2022-10-15T00:55:32.486Z,3.40
2022-10-15T00:58:06.499Z,3.50
2022-10-15T01:00:35.072Z,4.90
2022-10-15T01:03:02.985Z,4.03
2022-10-15T01:05:31.573Z,3.47
2022-10-15T01:07:59.097Z,2.97
2022-10-15T01:10:33.942Z,3.27
2022-10-15T01:13:11.089Z,5.88
2022-10-15T01:15:45.365Z,3.58
2022-10-15T01:18:17.474Z,2.92
2022-10-15T01:20:56.958Z,3.70
2022-10-15T01:23:54.038Z,2.77
2022-10-15T01:26:57.637Z,4.40
2022-10-15T01:29:44.865Z,2.80
2022-10-15T01:32:20.398Z,2.58
2022-10-15T01:34:55.255Z,3.92
2022-10-15T01:37:29.315Z,2.47
2022-10-15T01:40:03.295Z,3.00
2022-10-15T01:42:35.893Z,3.67
2022-10-15T01:45:08.194Z,3.83
2022-10-15T01:47:42.458Z,2.65
2022-10-15T01:50:13.021Z,3.58
2022-10-15T01:52:42.047Z,3.33
2022-10-15T01:55:14.600Z,2.40
2022-10-15T01:57:45.577Z,2.60
2022-10-15T02:00:13.583Z,4.22
2022-10-15T02:02:43.069Z,3.27
2022-10-15T02:05:16.601Z,3.25
2022-10-15T02:07:54.290Z,2.75
2022-10-15T02:10:28.837Z,3.92
2022-10-15T02:13:05.798Z,3.03
2022-10-15T02:15:38.489Z,2.55
2022-10-15T02:18:14.322Z,2.58
2022-10-15T02:20:51.234Z,2.33
2022-10-15T02:23:22.091Z,2.97
2022-10-15T02:25:52.807Z,2.60
2022-10-15T02:28:22.390Z,3.42
2022-10-15T02:30:53.866Z,3.45
2022-10-15T02:33:25.658Z,2.10
2022-10-15T02:35:53.981Z,3.50
2022-10-15T02:38:25.945Z,2.43
2022-10-15T02:40:54.757Z,2.95
2022-10-15T02:43:22.978Z,1.63
2022-10-15T02:45:50.720Z,1.33
2022-10-15T02:48:18.427Z,2.30
2022-10-15T02:50:47.280Z,2.45
2022-10-15T02:53:14.944Z,1.67
2022-10-15T02:55:42.540Z,1.70
2022-10-15T02:58:10.114Z,1.13
2022-10-15T03:00:37.809Z,1.67
2022-10-15T03:03:05.650Z,2.10
2022-10-15T03:05:35.013Z,3.20
2022-10-15T03:08:04.046Z,1.20
2022-10-15T03:10:31.615Z,0.80
2022-10-15T03:13:03.721Z,4.40
2022-10-15T03:15:31.653Z,2.25
2022-10-15T03:17:59.205Z,1.10
2022-10-15T03:20:26.746Z,2.30
2022-10-15T03:22:54.764Z,1.35
2022-10-15T03:25:23.654Z,1.60
2022-10-15T03:27:52.797Z,2.17
2022-10-15T03:30:20.563Z,1.40
2022-10-15T03:32:48.499Z,2.28
2022-10-15T03:35:16.171Z,2.40
2022-10-15T03:37:43.706Z,2.50
2022-10-15T03:40:13.680Z,0.88
2022-10-15T03:42:43.610Z,2.25
2022-10-15T03:45:11.753Z,2.05
2022-10-15T03:47:39.346Z,3.17
2022-10-15T03:50:07.251Z,3.85
2022-10-15T03:52:34.785Z,3.97
2022-10-15T03:55:02.413Z,3.17
2022-10-15T03:57:29.982Z,2.80
2022-10-15T03:59:58.897Z,3.60
2022-10-15T04:02:27.016Z,1.90
2022-10-15T04:04:55.482Z,5.07
2022-10-15T04:07:23.438Z,2.95
2022-10-15T04:09:51.185Z,3.08
2022-10-15T04:12:19.262Z,2.45
2022-10-15T04:14:46.821Z,2.90
2022-10-15T04:17:17.981Z,1.98
2022-10-15T04:19:45.664Z,3.30
2022-10-15T04:22:13.214Z,3.65
2022-10-15T04:24:40.766Z,2.50
2022-10-15T04:27:08.664Z,2.33
2022-10-15T04:29:36.237Z,2.10
2022-10-15T04:32:03.802Z,2.05
2022-10-15T04:34:32.731Z,1.90
2022-10-15T04:37:00.297Z,1.77
2022-10-15T04:39:28.082Z,2.35
2022-10-15T04:41:55.602Z,0.77
2022-10-15T04:44:23.134Z,2.30
2022-10-15T04:46:50.667Z,1.13
2022-10-15T04:49:18.220Z,0.57
2022-10-15T04:51:47.101Z,1.85
2022-10-15T04:54:14.952Z,1.70
2022-10-15T04:56:42.565Z,2.47
2022-10-15T04:59:10.155Z,1.65
2022-10-15T05:01:37.696Z,2.83
2022-10-15T05:04:05.593Z,1.42
2022-10-15T05:06:34.824Z,1.50
2022-10-15T05:09:03.750Z,1.20
2022-10-15T05:11:31.750Z,1.58
2022-10-15T05:13:59.835Z,3.22
2022-10-15T05:16:29.662Z,1.02
2022-10-15T05:18:59.558Z,2.13
2022-10-15T05:21:27.858Z,1.50
2022-10-15T05:23:55.526Z,1.93
2022-10-15T05:26:26.297Z,1.40
2022-10-15T05:28:54.405Z,1.13
2022-10-15T05:31:23.933Z,1.88
2022-10-15T05:33:53.053Z,1.85
2022-10-15T05:36:22.663Z,2.58
2022-10-15T05:38:54.018Z,2.00
2022-10-15T05:41:22.670Z,1.70
2022-10-15T05:43:52.454Z,1.73
2022-10-15T05:46:21.249Z,1.38
2022-10-15T05:48:49.866Z,1.23
2022-10-15T05:51:17.828Z,1.30
2022-10-15T05:53:46.175Z,1.33
2022-10-15T05:56:14.563Z,2.42
2022-10-15T05:58:42.556Z,1.60
2022-10-15T06:01:13.491Z,1.55
2022-10-15T06:03:42.621Z,1.63
2022-10-15T06:06:18.112Z,2.03
2022-10-15T06:08:45.737Z,2.50
2022-10-15T06:11:13.499Z,3.05
2022-10-15T06:13:42.743Z,3.40
2022-10-15T06:16:13.298Z,3.05
2022-10-15T06:18:41.591Z,2.53
2022-10-15T06:21:09.727Z,1.77
2022-10-15T06:23:37.589Z,1.95
2022-10-15T06:26:05.989Z,3.10
2022-10-15T06:28:33.948Z,1.90
2022-10-15T06:31:01.809Z,1.85
2022-10-15T06:33:31.242Z,2.65
2022-10-15T06:36:03.238Z,2.08
2022-10-15T06:38:31.154Z,2.20
2022-10-15T06:40:58.750Z,1.60
2022-10-15T06:43:28.718Z,14.93
2022-10-15T06:46:00.491Z,5.10
2022-10-15T06:48:28.197Z,4.40
2022-10-15T06:50:59.142Z,2.10
2022-10-15T06:53:26.797Z,2.08
2022-10-15T06:55:57.836Z,6.38
2022-10-15T06:58:25.525Z,2.83
2022-10-15T07:00:53.081Z,3.90
2022-10-15T07:03:20.681Z,1.95
2022-10-15T07:05:48.222Z,2.03
2022-10-15T07:08:19.354Z,5.25
2022-10-15T07:10:47.485Z,1.25
2022-10-15T07:13:15.391Z,1.25
2022-10-15T07:15:44.588Z,3.05
2022-10-15T07:18:12.139Z,4.25
2022-10-15T07:20:39.703Z,2.05
2022-10-15T07:23:07.264Z,1.80
2022-10-15T07:25:36.198Z,1.90
2022-10-15T07:28:04.073Z,0.85
2022-10-15T07:30:31.643Z,2.58
2022-10-15T07:33:00.253Z,1.98
2022-10-15T07:35:28.632Z,1.17
2022-10-15T07:37:56.470Z,2.10
2022-10-15T07:40:24.124Z,4.03
2022-10-15T07:42:56.792Z,3.20
2022-10-15T07:45:25.585Z,2.15
2022-10-15T07:47:53.605Z,1.40
2022-10-15T07:50:22.359Z,19.57
2022-10-15T07:52:50.234Z,11.00
2022-10-15T07:55:18.201Z,3.00
2022-10-15T07:57:45.798Z,1.98
2022-10-15T08:00:15.206Z,2.45
2022-10-15T08:02:42.884Z,1.00
2022-10-15T08:05:10.708Z,0.90
2022-10-15T08:07:38.378Z,1.15
2022-10-15T08:10:06.862Z,0.40
2022-10-15T08:18:46.760Z,1.17
2022-10-15T08:21:15.409Z,1.92
2022-10-15T08:23:42.961Z,0.50
2022-10-15T08:26:10.499Z,1.65
2022-10-15T08:28:38.336Z,1.17
2022-10-15T08:31:07.278Z,0.95
2022-10-15T08:33:35.555Z,1.80
2022-10-15T08:36:05.504Z,2.57
2022-10-15T08:38:33.202Z,3.20
2022-10-15T08:41:02.661Z,1.70
2022-10-15T08:43:34.361Z,2.03
2022-10-15T08:46:05.181Z,3.05
2022-10-15T08:48:37.316Z,0.60
2022-10-15T08:51:11.424Z,1.67
2022-10-15T08:53:42.435Z,3.00
2022-10-15T08:56:16.930Z,9.63
2022-10-15T08:58:51.993Z,3.22
2022-10-15T09:01:25.493Z,2.45
2022-10-15T09:04:02.955Z,2.10
2022-10-15T09:06:35.639Z,2.70
2022-10-15T09:09:09.349Z,3.40
2022-10-15T09:11:46.942Z,1.70
2022-10-15T09:14:19.690Z,0.30
2022-10-15T09:16:50.109Z,0.77
2022-10-15T09:19:20.440Z,1.50
2022-10-15T09:21:51.017Z,1.42
2022-10-15T09:24:22.501Z,1.08
2022-10-15T09:27:04.971Z,2.90
2022-10-15T09:29:38.151Z,1.38
2022-10-15T09:32:16.533Z,2.70
2022-10-15T09:34:49.562Z,1.65
2022-10-15T09:37:26.013Z,0.40
2022-10-15T09:40:28.345Z,0.50
2022-10-15T09:42:59.017Z,2.10
2022-10-15T09:45:26.595Z,1.75
2022-10-15T09:48:00.152Z,1.10
2022-10-15T09:50:36.746Z,1.27
2022-10-15T09:53:15.582Z,1.70
2022-10-15T09:55:48.034Z,1.15
2022-10-15T09:58:19.114Z,1.10
2022-10-15T10:00:55.060Z,0.43
2022-10-15T10:03:24.436Z,0.95
2022-10-15T10:05:59.734Z,0.80
2022-10-15T10:08:32.764Z,0.50
2022-10-15T10:11:02.543Z,1.00
2022-10-15T10:13:33.387Z,0.67
2022-10-15T10:16:05.759Z,1.00
2022-10-15T10:18:34.109Z,1.10
2022-10-15T10:21:03.477Z,0.82
2022-10-15T10:23:34.974Z,2.00
2022-10-15T10:26:04.044Z,2.42
2022-10-15T10:28:37.267Z,1.38
2022-10-15T10:31:09.125Z,2.20
2022-10-15T10:33:43.985Z,2.00
2022-10-15T10:36:22.370Z,2.25
2022-10-15T10:39:02.309Z,1.40
2022-10-15T10:41:52.018Z,4.28
2022-10-15T10:44:23.100Z,1.45
2022-10-15T10:47:03.494Z,5.05
2022-10-15T10:49:35.861Z,4.55
2022-10-15T10:52:03.462Z,2.13
2022-10-15T10:54:34.099Z,2.70
2022-10-15T10:57:02.275Z,3.13
2022-10-15T10:59:33.861Z,3.45
2022-10-15T11:02:03.562Z,2.15
2022-10-15T11:04:34.522Z,2.75
2022-10-15T11:07:05.461Z,2.33
2022-10-15T11:09:52.409Z,2.67
2022-10-15T11:12:40.628Z,2.40
2022-10-15T11:15:28.736Z,1.63
2022-10-15T11:18:09.947Z,3.03
2022-10-15T11:20:58.726Z,1.30
2022-10-15T11:23:42.895Z,1.75
2022-10-15T11:26:29.727Z,1.92
2022-10-15T11:29:11.595Z,2.60
2022-10-15T11:32:01.627Z,2.28
2022-10-15T11:34:40.640Z,0.80
2022-10-15T11:37:25.253Z,2.13
2022-10-15T11:40:07.089Z,1.50
2022-10-15T11:42:46.557Z,1.00
2022-10-15T11:45:39.698Z,0.88
2022-10-15T11:48:14.870Z,2.17
2022-10-15T11:50:47.515Z,0.67
2022-10-15T11:53:39.305Z,1.40
2022-10-15T11:56:14.571Z,1.25
2022-10-15T11:58:47.142Z,1.50
2022-10-15T12:01:20.818Z,1.52
2022-10-15T12:03:54.844Z,1.42
2022-10-15T12:06:27.378Z,1.83
2022-10-15T12:08:57.787Z,1.60
2022-10-15T12:11:39.898Z,1.40
2022-10-15T12:14:23.443Z,0.90
2022-10-15T12:17:01.650Z,1.10
2022-10-15T12:19:35.285Z,1.17
2022-10-15T12:22:11.208Z,1.23
2022-10-15T12:24:56.228Z,1.38
2022-10-15T12:27:34.510Z,0.90
2022-10-15T12:30:24.561Z,1.52
2022-10-15T12:32:52.730Z,1.73
2022-10-15T12:35:35.624Z,0.32
2022-10-15T12:38:21.120Z,0.95
2022-10-15T12:40:57.534Z,1.95
2022-10-15T12:43:26.058Z,1.20
2022-10-15T12:45:58.274Z,0.70
2022-10-15T12:48:34.984Z,0.90
2022-10-15T12:51:40.102Z,1.52
2022-10-15T12:54:37.323Z,2.20
2022-10-15T12:57:43.595Z,1.27
2022-10-15T13:00:33.783Z,0.98
2022-10-15T13:03:26.314Z,0.90
2022-10-15T13:05:55.217Z,0.60
2022-10-15T13:08:25.697Z,1.40
2022-10-15T13:10:56.775Z,1.58
2022-10-15T13:13:27.490Z,1.27
2022-10-15T13:15:59.359Z,1.55
2022-10-15T13:18:31.224Z,1.52
2022-10-15T13:20:59.554Z,1.27
2022-10-15T13:23:31.051Z,0.98
2022-10-15T13:26:19.770Z,0.50
2022-10-15T13:28:48.464Z,0.40
2022-10-15T13:31:28.978Z,0.60
2022-10-15T13:34:07.617Z,1.10
2022-10-15T13:36:36.731Z,1.90
2022-10-15T13:39:06.832Z,0.57
2022-10-15T13:41:37.394Z,0.35
2022-10-15T13:44:05.679Z,0.25
2022-10-15T13:46:37.256Z,1.00
2022-10-15T13:49:13.860Z,0.52
2022-10-15T13:51:44.316Z,1.10
2022-10-15T13:54:16.902Z,1.23
2022-10-15T13:56:50.254Z,2.00
2022-10-15T13:59:20.038Z,0.80
2022-10-15T14:01:49.473Z,0.30
2022-10-15T14:04:21.047Z,0.80
2022-10-15T14:09:32.442Z,2.85
2022-10-15T14:12:03.397Z,0.60
2022-10-15T14:14:34.906Z,0.77
2022-10-15T14:17:05.518Z,0.90
2022-10-15T14:19:37.510Z,0.77
2022-10-15T14:22:05.506Z,4.85
2022-10-15T14:24:35.180Z,0.63
2022-10-15T14:27:05.789Z,1.20
2022-10-15T14:29:59.485Z,1.33
2022-10-15T14:32:29.819Z,0.50
2022-10-15T14:35:00.356Z,0.55
2022-10-15T14:37:30.787Z,0.50
2022-10-15T14:40:11.985Z,3.65
2022-10-15T14:42:41.257Z,1.80
2022-10-15T14:45:13.438Z,0.57
2022-10-15T14:47:41.981Z,1.30
2022-10-15T14:50:13.085Z,0.30
2022-10-15T14:52:45.237Z,1.60
2022-10-15T14:55:20.407Z,2.40
2022-10-15T14:57:49.846Z,6.30
2022-10-15T15:00:23.827Z,1.10
2022-10-15T15:02:51.759Z,0.88
2022-10-15T15:05:23.835Z,1.30
2022-10-15T15:07:51.698Z,1.00
2022-10-15T15:10:20.258Z,0.90
2022-10-15T15:12:51.711Z,0.20
2022-10-15T15:15:46.019Z,0.88
2022-10-15T15:18:13.998Z,0.75
2022-10-15T15:20:44.562Z,2.47
2022-10-15T15:23:16.952Z,2.67
2022-10-15T15:25:44.761Z,2.00
2022-10-15T15:28:13.873Z,0.70
2022-10-15T15:30:43.640Z,1.08
2022-10-15T15:33:12.341Z,1.27
2022-10-15T15:35:50.636Z,2.63
2022-10-15T15:38:19.242Z,1.47
2022-10-15T15:40:47.690Z,8.05
2022-10-15T15:43:17.243Z,6.53
2022-10-15T15:45:46.324Z,1.77
2022-10-15T15:48:14.183Z,1.20
2022-10-15T15:50:44.386Z,3.10
2022-10-15T15:53:13.501Z,0.73
2022-10-15T15:55:41.106Z,1.75
2022-10-15T15:58:08.626Z,0.98
2022-10-15T16:00:36.560Z,1.58
2022-10-15T16:03:04.226Z,1.10
2022-10-15T16:05:31.799Z,0.80
2022-10-15T16:08:00.846Z,1.58
2022-10-15T16:10:28.531Z,2.17
2022-10-15T16:12:56.733Z,3.33
2022-10-15T16:15:24.395Z,1.40
2022-10-15T16:17:52.289Z,0.90
2022-10-15T16:20:19.953Z,2.85
2022-10-15T16:22:50.872Z,2.20
2022-10-15T16:25:20.103Z,0.83
2022-10-15T16:27:48.750Z,2.00
2022-10-15T16:30:17.544Z,0.95
2022-10-15T16:32:45.150Z,3.22
2022-10-15T16:35:12.938Z,2.10
2022-10-15T16:37:40.790Z,3.50
2022-10-15T16:40:10.120Z,1.08
2022-10-15T16:42:39.019Z,0.50
2022-10-15T16:45:07.438Z,1.45
2022-10-15T16:47:35.105Z,1.83
2022-10-15T16:50:02.876Z,3.03
2022-10-15T16:52:30.641Z,3.30
2022-10-15T16:54:58.214Z,5.05
2022-10-15T16:57:27.162Z,3.33
2022-10-15T16:59:56.322Z,8.43
2022-10-15T17:02:24.373Z,4.78
2022-10-15T17:04:53.184Z,3.95
2022-10-15T17:07:20.989Z,2.72
2022-10-15T17:12:17.672Z,3.95
2022-10-15T17:14:50.648Z,2.90
2022-10-15T17:19:48.260Z,1.55
2022-10-15T17:22:15.886Z,1.20
2022-10-15T17:24:43.438Z,1.65
2022-10-15T17:27:10.988Z,3.22
2022-10-15T17:29:38.638Z,4.20
2022-10-15T17:32:06.252Z,4.43
2022-10-15T17:34:35.685Z,16.30
2022-10-15T17:37:03.278Z,3.63
2022-10-15T17:39:30.870Z,2.50
2022-10-15T17:41:58.774Z,1.60
2022-10-15T17:44:26.420Z,3.65
2022-10-15T17:46:54.278Z,1.60
2022-10-15T17:49:22.038Z,0.80
2022-10-15T17:51:51.476Z,1.63
2022-10-15T17:54:19.656Z,1.55
2022-10-15T17:56:48.490Z,2.10
2022-10-15T17:59:16.447Z,2.30
2022-10-15T18:02:01.044Z,2.75
2022-10-15T18:04:29.609Z,0.77
2022-10-15T18:06:58.638Z,1.75
2022-10-15T18:09:27.033Z,2.10
2022-10-15T18:11:54.707Z,2.65
2022-10-15T18:14:22.428Z,0.87
2022-10-15T18:16:50.065Z,1.20
2022-10-15T18:19:17.881Z,1.00
2022-10-15T18:21:48.714Z,2.67
2022-10-15T18:24:21.736Z,1.23
2022-10-15T18:26:50.132Z,1.52
2022-10-15T18:29:17.860Z,2.15
2022-10-15T18:31:46.604Z,3.35
2022-10-15T18:34:14.447Z,2.15
2022-10-15T18:36:43.499Z,1.73
2022-10-15T18:39:11.780Z,1.70
2022-10-15T18:41:41.076Z,2.23
2022-10-15T18:44:14.650Z,2.40
2022-10-15T18:46:43.837Z,2.45
2022-10-15T18:49:12.293Z,3.13
2022-10-15T18:51:39.893Z,1.88
2022-10-15T18:54:08.622Z,1.30
2022-10-15T18:56:36.231Z,1.42
2022-10-15T18:59:05.238Z,2.17
2022-10-15T19:01:34.921Z,3.17
2022-10-15T19:04:04.303Z,1.48
2022-10-15T19:06:34.467Z,5.93
2022-10-15T19:09:03.417Z,6.55
2022-10-15T19:11:31.346Z,3.67
2022-10-15T19:13:59.208Z,1.75
2022-10-15T19:16:28.597Z,1.67
2022-10-15T19:18:56.142Z,3.45
2022-10-15T19:21:23.724Z,2.50
2022-10-15T19:23:51.453Z,1.88
2022-10-15T19:26:19.178Z,3.85
2022-10-15T19:28:47.413Z,3.53
2022-10-15T19:31:24.015Z,3.65
2022-10-15T19:33:52.930Z,2.40
2022-10-15T19:36:21.959Z,3.20
2022-10-15T19:38:49.959Z,3.65
2022-10-15T19:41:17.506Z,5.27
2022-10-15T19:43:45.387Z,3.92
2022-10-15T19:46:13.102Z,2.90
2022-10-15T19:48:40.729Z,2.85
2022-10-15T19:51:10.166Z,2.43
2022-10-15T19:53:37.960Z,3.88
2022-10-15T19:56:08.289Z,2.33
2022-10-15T19:58:36.870Z,2.70
2022-10-15T20:01:05.445Z,3.72
2022-10-15T20:03:33.910Z,6.35
2022-10-15T20:06:02.960Z,5.90
2022-10-15T20:08:32.350Z,5.68
2022-10-15T20:11:00.119Z,4.20
2022-10-15T20:13:27.840Z,3.38
2022-10-15T20:15:55.622Z,5.53
2022-10-15T20:18:23.755Z,4.55
2022-10-15T20:20:51.507Z,6.80
2022-10-15T20:23:19.367Z,7.20
2022-10-15T20:25:48.463Z,7.32
2022-10-15T20:28:18.303Z,9.27
2022-10-15T20:30:47.151Z,9.60
2022-10-15T20:33:14.975Z,10.57
2022-10-15T20:35:43.220Z,13.27
2022-10-15T20:38:11.185Z,12.18
2022-10-15T20:40:41.221Z,14.00
2022-10-15T20:43:10.620Z,11.48
2022-10-15T20:45:42.991Z,11.85
2022-10-15T20:48:17.632Z,10.38
2022-10-15T20:50:45.666Z,10.65
2022-10-15T20:53:13.629Z,10.83
2022-10-15T20:55:41.450Z,9.98
2022-10-15T20:58:10.584Z,9.65
2022-10-15T21:00:38.143Z,9.48
2022-10-15T21:03:05.713Z,8.35
2022-10-15T21:05:33.295Z,8.73
2022-10-15T21:08:01.586Z,8.18
2022-10-15T21:10:29.180Z,5.68
2022-10-15T21:12:56.715Z,6.90
2022-10-15T21:15:25.638Z,6.18
2022-10-15T21:17:53.206Z,6.82
2022-10-15T21:20:20.791Z,10.10
2022-10-15T21:22:48.310Z,9.45
2022-10-15T21:25:15.926Z,8.23
2022-10-15T21:27:43.505Z,6.80
2022-10-15T21:30:11.845Z,6.97
2022-10-15T21:32:40.771Z,9.23
2022-10-15T21:35:08.958Z,5.73
2022-10-15T21:37:37.835Z,5.10
2022-10-15T21:40:07.490Z,5.95
2022-10-15T21:42:35.224Z,3.30
2022-10-15T21:45:02.798Z,4.68
2022-10-15T21:47:30.625Z,3.93
2022-10-15T21:49:59.763Z,4.00
2022-10-15T21:52:27.514Z,3.17
2022-10-15T21:54:55.281Z,3.83
2022-10-15T21:57:22.946Z,4.13
2022-10-15T21:59:50.647Z,6.60
2022-10-15T22:04:46.905Z,9.18
2022-10-15T22:07:15.859Z,8.60
2022-10-15T22:09:43.639Z,5.88
2022-10-15T22:12:11.386Z,6.85
2022-10-15T22:14:38.902Z,5.77
2022-10-15T22:17:06.467Z,5.95
2022-10-15T22:19:34.030Z,4.95
2022-10-15T22:22:01.570Z,4.60
2022-10-15T22:24:30.462Z,6.13
2022-10-15T22:26:57.989Z,8.77
2022-10-15T22:29:31.789Z,9.57
2022-10-15T22:32:02.115Z,9.93
2022-10-15T22:34:29.734Z,7.30
2022-10-15T22:36:57.288Z,6.65
2022-10-15T22:39:24.986Z,6.70
2022-10-15T22:41:53.882Z,6.60
2022-10-15T22:44:22.751Z,5.43
2022-10-15T22:46:50.682Z,6.32
2022-10-15T22:49:20.504Z,3.87
2022-10-15T22:51:48.342Z,4.63
2022-10-15T22:54:16.863Z,5.28
2022-10-15T22:56:45.277Z,5.47
2022-10-15T22:59:15.030Z,4.60
2022-10-15T23:01:42.993Z,4.75
2022-10-15T23:04:13.778Z,5.20
2022-10-15T23:06:41.775Z,3.97
2022-10-15T23:09:10.155Z,5.10
2022-10-15T23:11:39.806Z,7.05
2022-10-15T23:14:11.189Z,3.47
2022-10-15T23:16:42.137Z,1.35
2022-10-15T23:19:13.893Z,1.13
2022-10-15T23:21:43.634Z,0.82
2022-10-15T23:24:11.560Z,1.80
2022-10-15T23:26:40.832Z,1.10
2022-10-15T23:29:12.861Z,1.90
2022-10-15T23:31:42.091Z,1.00
2022-10-15T23:34:14.686Z,1.80
2022-10-15T23:36:42.755Z,1.27
2022-10-15T23:39:15.262Z,0.60
2022-10-15T23:41:43.393Z,0.90
2022-10-15T23:44:12.093Z,1.40
2022-10-15T23:46:41.472Z,3.22
2022-10-15T23:49:09.874Z,2.75
2022-10-15T23:51:38.017Z,2.03
2022-10-15T23:54:12.908Z,2.08
2022-10-15T23:56:40.405Z,2.50
2022-10-15T23:59:08.093Z,2.55
